createdAt,value
2017-10-03T00:00:03.373Z,15.47
2017-10-03T00:01:09.792Z,15.47
2017-10-03T00:02:16.630Z,15.45
2017-10-03T00:03:23.509Z,15.45
2017-10-03T00:04:30.434Z,15.45
2017-10-03T00:05:37.309Z,15.42
2017-10-03T00:06:44.510Z,15.41
2017-10-03T00:07:50.866Z,15.41
2017-10-03T00:08:57.750Z,15.41
2017-10-03T00:10:04.738Z,15.39
2017-10-03T00:11:11.609Z,15.38
2017-10-03T00:12:18.481Z,15.38
2017-10-03T00:13:25.339Z,15.37
2017-10-03T00:14:32.224Z,15.37
2017-10-03T00:15:39.072Z,15.36
2017-10-03T00:16:45.976Z,15.34
2017-10-03T00:17:52.797Z,15.33
2017-10-03T00:18:59.698Z,15.33
2017-10-03T00:20:06.546Z,15.33
2017-10-03T00:21:13.441Z,15.31
2017-10-03T00:22:20.293Z,15.31
2017-10-03T00:23:27.222Z,15.28
2017-10-03T00:24:34.178Z,15.27
2017-10-03T00:25:41.091Z,15.27
2017-10-03T00:26:48.090Z,15.25
2017-10-03T00:27:54.965Z,15.25
2017-10-03T00:29:01.819Z,15.25
2017-10-03T00:30:08.689Z,15.23
2017-10-03T00:31:15.534Z,15.22
2017-10-03T00:32:22.397Z,15.21
2017-10-03T00:33:29.695Z,15.20
2017-10-03T00:34:36.162Z,15.20
2017-10-03T00:35:43.028Z,15.17
2017-10-03T00:36:50.023Z,15.18
2017-10-03T00:37:56.906Z,15.17
2017-10-03T00:39:03.854Z,15.16
2017-10-03T00:40:10.698Z,15.15
2017-10-03T00:41:17.664Z,15.15
2017-10-03T00:42:24.537Z,15.14
2017-10-03T00:43:31.390Z,15.12
2017-10-03T00:44:38.408Z,15.11
2017-10-03T00:45:45.312Z,15.11
2017-10-03T00:46:52.323Z,15.09
2017-10-03T00:47:59.270Z,15.09
2017-10-03T00:49:06.222Z,15.07
2017-10-03T00:50:13.091Z,15.07
2017-10-03T00:51:19.989Z,15.07
2017-10-03T00:52:26.883Z,15.05
2017-10-03T00:53:33.832Z,15.04
2017-10-03T00:54:40.717Z,15.02
2017-10-03T00:55:47.630Z,15.02
2017-10-03T00:56:54.569Z,15.02
2017-10-03T00:58:01.534Z,15.00
2017-10-03T00:59:08.489Z,15.00
2017-10-03T01:00:15.358Z,14.98
2017-10-03T01:01:22.214Z,14.98
2017-10-03T01:02:29.211Z,14.98
2017-10-03T01:03:36.061Z,14.96
2017-10-03T01:04:42.966Z,14.95
2017-10-03T01:05:50.691Z,14.95
2017-10-03T01:06:57.049Z,14.96
2017-10-03T01:08:03.982Z,14.94
2017-10-03T01:09:12.473Z,14.94
2017-10-03T01:10:17.824Z,14.93
2017-10-03T01:11:24.698Z,14.92
2017-10-03T01:12:31.639Z,14.92
2017-10-03T01:13:38.457Z,14.90
2017-10-03T01:14:45.311Z,14.89
2017-10-03T01:15:52.158Z,14.90
2017-10-03T01:16:59.026Z,14.90
2017-10-03T01:18:05.922Z,14.89
2017-10-03T01:19:12.758Z,14.89
2017-10-03T01:20:19.659Z,14.88
2017-10-03T01:21:26.552Z,14.88
2017-10-03T01:22:33.513Z,14.88
2017-10-03T01:23:40.407Z,14.89
2017-10-03T01:24:47.375Z,14.89
2017-10-03T01:25:54.234Z,14.87
2017-10-03T01:27:01.178Z,14.85
2017-10-03T01:28:08.243Z,14.86
2017-10-03T01:29:15.178Z,14.87
2017-10-03T01:30:22.164Z,14.86
2017-10-03T01:31:29.630Z,14.85
2017-10-03T01:32:36.127Z,14.85
2017-10-03T01:33:43.050Z,14.82
2017-10-03T01:34:49.898Z,14.83
2017-10-03T01:35:56.798Z,14.83
2017-10-03T01:37:03.821Z,14.82
2017-10-03T01:38:10.740Z,14.82
2017-10-03T01:39:17.598Z,14.81
2017-10-03T01:40:24.506Z,14.81
2017-10-03T01:41:31.341Z,14.79
2017-10-03T01:42:38.235Z,14.79
2017-10-03T01:43:45.140Z,14.80
2017-10-03T01:44:52.025Z,14.78
2017-10-03T01:45:58.866Z,14.77
2017-10-03T01:47:05.779Z,14.77
2017-10-03T01:48:12.709Z,14.77
2017-10-03T01:49:19.652Z,14.76
2017-10-03T01:50:26.539Z,14.75
2017-10-03T01:51:33.447Z,14.76
2017-10-03T01:52:40.354Z,14.75
2017-10-03T01:53:47.253Z,14.73
2017-10-03T01:54:54.149Z,14.72
2017-10-03T01:56:01.083Z,14.71
2017-10-03T01:57:07.978Z,14.71
2017-10-03T01:58:14.853Z,14.69
2017-10-03T01:59:21.814Z,14.67
2017-10-03T02:00:28.681Z,14.68
2017-10-03T02:01:35.565Z,14.67
2017-10-03T02:02:42.429Z,14.66
2017-10-03T02:03:49.266Z,14.65
2017-10-03T02:04:56.131Z,14.63
2017-10-03T02:06:02.991Z,14.62
2017-10-03T02:07:09.857Z,14.62
2017-10-03T02:08:16.765Z,14.61
2017-10-03T02:09:23.663Z,14.59
2017-10-03T02:10:30.507Z,14.58
2017-10-03T02:11:37.400Z,14.59
2017-10-03T02:12:44.305Z,14.58
2017-10-03T02:13:51.175Z,14.57
2017-10-03T02:14:58.125Z,14.56
2017-10-03T02:16:05.014Z,14.53
2017-10-03T02:17:11.862Z,14.53
2017-10-03T02:18:18.740Z,14.54
2017-10-03T02:19:25.638Z,14.51
2017-10-03T02:20:32.546Z,14.50
2017-10-03T02:21:39.628Z,14.50
2017-10-03T02:22:46.486Z,14.49
2017-10-03T02:23:53.349Z,14.48
2017-10-03T02:25:00.237Z,14.48
2017-10-03T02:26:07.157Z,14.47
2017-10-03T02:27:13.913Z,14.46
2017-10-03T02:28:20.786Z,14.44
2017-10-03T02:29:27.651Z,14.45
2017-10-03T02:30:34.575Z,14.41
2017-10-03T02:31:42.336Z,14.41
2017-10-03T02:32:48.233Z,14.41
2017-10-03T02:33:55.121Z,14.42
2017-10-03T02:35:02.010Z,14.39
2017-10-03T02:36:08.918Z,14.38
2017-10-03T02:37:15.766Z,14.39
2017-10-03T02:38:22.626Z,14.37
2017-10-03T02:39:29.534Z,14.37
2017-10-03T02:40:36.395Z,14.35
2017-10-03T02:41:43.226Z,14.35
2017-10-03T02:42:50.077Z,14.34
2017-10-03T02:43:57.003Z,14.33
2017-10-03T02:45:03.916Z,14.31
2017-10-03T02:46:10.802Z,14.31
2017-10-03T02:47:17.662Z,14.31
2017-10-03T02:48:24.633Z,14.31
2017-10-03T02:49:31.511Z,14.28
2017-10-03T02:50:38.391Z,14.30
2017-10-03T02:51:45.330Z,14.28
2017-10-03T02:52:52.185Z,14.27
2017-10-03T02:53:59.037Z,14.27
2017-10-03T02:55:05.919Z,14.26
2017-10-03T02:56:12.769Z,14.25
2017-10-03T02:57:19.634Z,14.25
2017-10-03T02:58:26.506Z,14.23
2017-10-03T02:59:33.346Z,14.24
2017-10-03T03:00:40.174Z,14.23
2017-10-03T03:01:47.057Z,14.21
2017-10-03T03:02:53.865Z,14.22
2017-10-03T03:04:00.802Z,14.21
2017-10-03T03:05:08.147Z,14.20
2017-10-03T03:06:14.558Z,14.19
2017-10-03T03:07:21.386Z,14.19
2017-10-03T03:08:28.170Z,14.19
2017-10-03T03:09:34.926Z,14.18
2017-10-03T03:10:41.737Z,14.16
2017-10-03T03:11:48.505Z,14.15
2017-10-03T03:12:55.345Z,14.14
2017-10-03T03:14:02.166Z,14.14
2017-10-03T03:15:09.044Z,14.15
2017-10-03T03:16:15.841Z,14.13
2017-10-03T03:17:22.607Z,14.12
2017-10-03T03:18:29.398Z,14.13
2017-10-03T03:19:36.170Z,14.13
2017-10-03T03:20:42.994Z,14.12
2017-10-03T03:21:49.769Z,14.11
2017-10-03T03:22:56.634Z,14.10
2017-10-03T03:24:03.545Z,14.09
2017-10-03T03:25:10.417Z,14.09
2017-10-03T03:26:17.223Z,14.07
2017-10-03T03:27:24.141Z,14.07
2017-10-03T03:28:31.022Z,14.07
2017-10-03T03:29:37.781Z,14.07
2017-10-03T03:30:44.593Z,14.06
2017-10-03T03:31:52.013Z,14.06
2017-10-03T03:32:58.329Z,14.04
2017-10-03T03:34:05.088Z,14.04
2017-10-03T03:35:11.923Z,14.04
2017-10-03T03:36:18.834Z,14.02
2017-10-03T03:37:25.650Z,14.03
2017-10-03T03:38:32.430Z,14.03
2017-10-03T03:39:39.193Z,14.01
2017-10-03T03:40:46.000Z,14.01
2017-10-03T03:41:52.868Z,14.01
2017-10-03T03:43:00.038Z,14.00
2017-10-03T03:44:06.829Z,13.98
2017-10-03T03:45:13.778Z,13.98
2017-10-03T03:46:20.580Z,13.97
2017-10-03T03:47:27.406Z,13.96
2017-10-03T03:48:34.241Z,13.94
2017-10-03T03:49:41.179Z,13.95
2017-10-03T03:50:47.966Z,13.94
2017-10-03T03:51:54.758Z,13.94
2017-10-03T03:53:01.525Z,13.93
2017-10-03T03:54:08.321Z,13.92
2017-10-03T03:55:15.253Z,13.93
2017-10-03T03:56:22.038Z,13.92
2017-10-03T03:57:28.863Z,13.92
2017-10-03T03:58:35.635Z,13.90
2017-10-03T03:59:42.470Z,13.89
2017-10-03T04:00:49.362Z,13.90
2017-10-03T04:01:56.282Z,13.89
2017-10-03T04:03:03.186Z,13.88
2017-10-03T04:04:10.270Z,13.87
2017-10-03T04:05:17.041Z,13.88
2017-10-03T04:06:23.818Z,13.87
2017-10-03T04:07:30.593Z,13.87
2017-10-03T04:08:37.353Z,13.87
2017-10-03T04:09:44.133Z,13.85
2017-10-03T04:10:50.926Z,13.85
2017-10-03T04:11:57.724Z,13.85
2017-10-03T04:13:04.514Z,13.83
2017-10-03T04:14:11.280Z,13.84
2017-10-03T04:15:18.302Z,13.82
2017-10-03T04:16:25.125Z,13.83
2017-10-03T04:17:31.962Z,13.81
2017-10-03T04:18:38.845Z,13.81
2017-10-03T04:19:45.613Z,13.82
2017-10-03T04:20:52.468Z,13.81
2017-10-03T04:21:59.290Z,13.79
2017-10-03T04:23:06.226Z,13.79
2017-10-03T04:24:13.106Z,13.79
2017-10-03T04:25:19.949Z,13.78
2017-10-03T04:26:26.805Z,13.76
2017-10-03T04:27:33.673Z,13.75
2017-10-03T04:28:40.513Z,13.76
2017-10-03T04:29:47.285Z,13.76
2017-10-03T04:30:54.151Z,13.74
2017-10-03T04:32:01.026Z,13.74
2017-10-03T04:33:07.845Z,13.72
2017-10-03T04:34:14.633Z,13.72
2017-10-03T04:35:21.381Z,13.71
2017-10-03T04:36:28.172Z,13.71
2017-10-03T04:37:34.970Z,13.70
2017-10-03T04:38:41.821Z,13.70
2017-10-03T04:39:48.601Z,13.69
2017-10-03T04:40:55.378Z,13.69
2017-10-03T04:42:02.149Z,13.68
2017-10-03T04:43:08.986Z,13.68
2017-10-03T04:44:15.777Z,13.68
2017-10-03T04:45:22.615Z,13.66
2017-10-03T04:46:29.403Z,13.66
2017-10-03T04:47:36.158Z,13.66
2017-10-03T04:48:43.001Z,13.63
2017-10-03T04:49:49.802Z,13.65
2017-10-03T04:50:56.609Z,13.64
2017-10-03T04:52:03.705Z,13.63
2017-10-03T04:53:10.541Z,13.61
2017-10-03T04:54:17.350Z,13.61
2017-10-03T04:55:24.133Z,13.61
2017-10-03T04:56:31.116Z,13.60
2017-10-03T04:57:37.878Z,13.61
2017-10-03T04:58:44.666Z,13.60
2017-10-03T04:59:51.503Z,13.59
2017-10-03T05:00:58.369Z,13.58
2017-10-03T05:02:05.147Z,13.57
2017-10-03T05:03:12.233Z,13.57
2017-10-03T05:04:19.095Z,13.57
2017-10-03T05:05:26.147Z,13.56
2017-10-03T05:06:32.988Z,13.55
2017-10-03T05:07:39.807Z,13.56
2017-10-03T05:08:46.622Z,13.55
2017-10-03T05:09:53.435Z,13.55
2017-10-03T05:11:00.231Z,13.54
2017-10-03T05:12:07.160Z,13.53
2017-10-03T05:13:13.933Z,13.53
2017-10-03T05:14:20.702Z,13.52
2017-10-03T05:15:27.658Z,13.50
2017-10-03T05:16:34.437Z,13.49
2017-10-03T05:17:41.234Z,13.49
2017-10-03T05:18:48.046Z,13.49
2017-10-03T05:19:54.841Z,13.50
2017-10-03T05:21:01.690Z,13.48
2017-10-03T05:22:08.466Z,13.48
2017-10-03T05:23:15.301Z,13.47
2017-10-03T05:24:22.148Z,13.46
2017-10-03T05:25:28.921Z,13.45
2017-10-03T05:26:35.769Z,13.45
2017-10-03T05:27:42.573Z,13.44
2017-10-03T05:28:49.757Z,13.42
2017-10-03T05:29:56.585Z,13.44
2017-10-03T05:31:03.352Z,13.41
2017-10-03T05:32:10.637Z,13.42
2017-10-03T05:33:16.950Z,13.41
2017-10-03T05:34:23.769Z,13.41
2017-10-03T05:35:30.612Z,13.40
2017-10-03T05:36:37.426Z,13.39
2017-10-03T05:37:44.321Z,13.38
2017-10-03T05:38:51.206Z,13.38
2017-10-03T05:39:58.397Z,13.37
2017-10-03T05:41:05.225Z,13.37
2017-10-03T05:42:12.130Z,13.37
2017-10-03T05:43:18.970Z,13.36
2017-10-03T05:44:25.789Z,13.35
2017-10-03T05:45:32.700Z,13.35
2017-10-03T05:46:39.502Z,13.33
2017-10-03T05:47:46.301Z,13.33
2017-10-03T05:48:53.097Z,13.33
2017-10-03T05:49:59.907Z,13.32
2017-10-03T05:51:06.697Z,13.31
2017-10-03T05:52:13.577Z,13.30
2017-10-03T05:53:20.357Z,13.30
2017-10-03T05:54:27.219Z,13.28
2017-10-03T05:55:34.109Z,13.28
2017-10-03T05:56:40.962Z,13.27
2017-10-03T05:57:47.773Z,13.27
2017-10-03T05:58:54.598Z,13.27
2017-10-03T06:00:01.406Z,13.26
2017-10-03T06:01:08.282Z,13.26
2017-10-03T06:02:15.085Z,13.26
2017-10-03T06:03:21.896Z,13.22
2017-10-03T06:04:28.685Z,13.23
2017-10-03T06:05:35.584Z,13.21
2017-10-03T06:06:42.421Z,13.22
2017-10-03T06:07:49.218Z,13.21
2017-10-03T06:08:56.041Z,13.21
2017-10-03T06:10:02.889Z,13.20
2017-10-03T06:11:09.716Z,13.19
2017-10-03T06:12:16.696Z,13.19
2017-10-03T06:13:23.498Z,13.18
2017-10-03T06:14:30.454Z,13.18
2017-10-03T06:15:37.234Z,13.17
2017-10-03T06:16:44.077Z,13.18
2017-10-03T06:17:51.234Z,13.16
2017-10-03T06:18:58.102Z,13.14
2017-10-03T06:20:04.970Z,13.13
2017-10-03T06:21:11.832Z,13.14
2017-10-03T06:22:18.728Z,13.14
2017-10-03T06:23:25.509Z,13.11
2017-10-03T06:24:32.320Z,13.12
2017-10-03T06:25:39.130Z,13.10
2017-10-03T06:26:46.002Z,13.10
2017-10-03T06:27:52.802Z,13.09
2017-10-03T06:28:59.633Z,13.10
2017-10-03T06:30:06.426Z,13.08
2017-10-03T06:31:13.295Z,13.07
2017-10-03T06:32:20.221Z,13.09
2017-10-03T06:33:27.002Z,13.08
2017-10-03T06:34:33.896Z,13.08
2017-10-03T06:35:40.741Z,13.06
2017-10-03T06:36:47.532Z,13.06
2017-10-03T06:37:54.709Z,13.06
2017-10-03T06:39:01.570Z,13.06
2017-10-03T06:40:08.385Z,13.05
2017-10-03T06:41:15.296Z,13.03
2017-10-03T06:42:22.109Z,13.02
2017-10-03T06:43:28.881Z,13.04
2017-10-03T06:44:35.694Z,13.03
2017-10-03T06:45:42.505Z,13.02
2017-10-03T06:46:49.389Z,13.01
2017-10-03T06:47:56.181Z,13.02
2017-10-03T06:49:03.070Z,13.00
2017-10-03T06:50:09.862Z,13.00
2017-10-03T06:51:16.720Z,13.01
2017-10-03T06:52:23.573Z,13.00
2017-10-03T06:53:30.354Z,13.00
2017-10-03T06:54:37.810Z,12.99
2017-10-03T06:55:44.146Z,12.99
2017-10-03T06:56:51.070Z,12.99
2017-10-03T06:57:57.874Z,12.97
2017-10-03T06:59:04.839Z,12.97
2017-10-03T07:00:11.622Z,12.98
2017-10-03T07:01:18.493Z,12.96
2017-10-03T07:02:25.337Z,12.97
2017-10-03T07:03:32.153Z,12.95
2017-10-03T07:04:38.941Z,12.95
2017-10-03T07:05:45.722Z,12.96
2017-10-03T07:06:52.609Z,12.96
2017-10-03T07:07:59.528Z,12.93
2017-10-03T07:09:06.361Z,12.93
2017-10-03T07:10:13.209Z,12.92
2017-10-03T07:11:20.091Z,12.93
2017-10-03T07:12:26.902Z,12.93
2017-10-03T07:13:33.651Z,12.93
2017-10-03T07:14:40.441Z,12.92
2017-10-03T07:15:47.350Z,12.94
2017-10-03T07:16:54.257Z,12.93
2017-10-03T07:18:01.044Z,12.92
2017-10-03T07:19:07.850Z,12.93
2017-10-03T07:20:14.625Z,12.92
2017-10-03T07:21:21.414Z,12.92
2017-10-03T07:22:28.321Z,12.92
2017-10-03T07:23:35.084Z,12.91
2017-10-03T07:24:42.112Z,12.93
2017-10-03T07:25:48.939Z,12.93
2017-10-03T07:26:55.774Z,12.92
2017-10-03T07:28:02.703Z,12.92
2017-10-03T07:29:09.610Z,12.94
2017-10-03T07:30:16.366Z,12.92
2017-10-03T07:31:23.177Z,12.93
2017-10-03T07:32:30.041Z,12.94
2017-10-03T07:33:36.874Z,12.95
2017-10-03T07:34:43.705Z,12.94
2017-10-03T07:35:50.619Z,12.93
2017-10-03T07:36:57.602Z,12.95
2017-10-03T07:38:04.404Z,12.96
2017-10-03T07:39:11.209Z,12.94
2017-10-03T07:40:17.985Z,12.96
2017-10-03T07:41:24.773Z,12.97
2017-10-03T07:42:31.646Z,12.97
2017-10-03T07:43:38.435Z,12.97
2017-10-03T07:44:45.209Z,12.97
2017-10-03T07:45:51.954Z,12.98
2017-10-03T07:46:59.146Z,12.99
2017-10-03T07:48:05.914Z,12.99
2017-10-03T07:49:12.692Z,12.99
2017-10-03T07:50:19.477Z,12.98
2017-10-03T07:51:26.266Z,12.99
2017-10-03T07:52:33.145Z,12.99
2017-10-03T07:53:39.981Z,12.99
2017-10-03T07:54:46.987Z,12.99
2017-10-03T07:55:53.778Z,12.98
2017-10-03T07:57:00.589Z,13.01
2017-10-03T07:58:07.473Z,13.00
2017-10-03T07:59:14.273Z,13.00
2017-10-03T08:00:21.053Z,13.00
2017-10-03T08:01:27.809Z,12.99
2017-10-03T08:02:34.604Z,13.01
2017-10-03T08:03:41.430Z,13.00
2017-10-03T08:04:48.187Z,13.01
2017-10-03T08:05:54.990Z,13.01
2017-10-03T08:07:01.805Z,13.01
2017-10-03T08:08:08.642Z,13.02
2017-10-03T08:09:15.426Z,13.03
2017-10-03T08:10:22.316Z,13.02
2017-10-03T08:11:29.187Z,13.02
2017-10-03T08:12:36.028Z,13.03
2017-10-03T08:13:42.797Z,13.04
2017-10-03T08:14:49.666Z,13.04
2017-10-03T08:15:56.437Z,13.03
2017-10-03T08:17:03.228Z,13.05
2017-10-03T08:18:10.163Z,13.05
2017-10-03T08:19:16.947Z,13.07
2017-10-03T08:20:30.210Z,13.06
2017-10-03T08:21:35.529Z,13.07
2017-10-03T08:22:42.326Z,13.07
2017-10-03T08:23:49.193Z,13.07
2017-10-03T08:24:56.197Z,13.09
2017-10-03T08:26:03.049Z,13.07
2017-10-03T08:27:09.921Z,13.09
2017-10-03T08:28:16.926Z,13.10
2017-10-03T08:29:23.814Z,13.11
2017-10-03T08:30:30.737Z,13.11
2017-10-03T08:31:37.605Z,13.12
2017-10-03T08:32:44.424Z,13.11
2017-10-03T08:33:51.601Z,13.11
2017-10-03T08:34:57.938Z,13.12
2017-10-03T08:36:04.665Z,13.15
2017-10-03T08:37:11.450Z,13.15
2017-10-03T08:38:18.382Z,13.14
2017-10-03T08:39:25.231Z,13.14
2017-10-03T08:40:32.213Z,13.15
2017-10-03T08:41:39.081Z,13.15
2017-10-03T08:42:46.132Z,13.18
2017-10-03T08:43:52.858Z,13.18
2017-10-03T08:44:59.717Z,13.17
2017-10-03T08:46:06.753Z,13.19
2017-10-03T08:47:13.491Z,13.19
2017-10-03T08:48:20.371Z,13.19
2017-10-03T08:49:27.192Z,13.20
2017-10-03T08:50:33.994Z,13.22
2017-10-03T08:51:40.929Z,13.22
2017-10-03T08:52:47.897Z,13.23
2017-10-03T08:53:54.869Z,13.24
2017-10-03T08:55:01.782Z,13.24
2017-10-03T08:56:08.618Z,13.23
2017-10-03T08:57:15.385Z,13.27
2017-10-03T08:58:22.298Z,13.26
2017-10-03T08:59:29.026Z,13.28
2017-10-03T09:00:35.873Z,13.28
2017-10-03T09:01:42.693Z,13.29
2017-10-03T09:02:49.409Z,13.32
2017-10-03T09:03:56.225Z,13.32
2017-10-03T09:05:03.075Z,13.31
2017-10-03T09:06:09.913Z,13.33
2017-10-03T09:07:16.696Z,13.33
2017-10-03T09:08:23.509Z,13.34
2017-10-03T09:09:30.478Z,13.35
2017-10-03T09:10:37.298Z,13.36
2017-10-03T09:11:44.097Z,13.36
2017-10-03T09:12:51.038Z,13.37
2017-10-03T09:13:57.818Z,13.38
2017-10-03T09:15:04.608Z,13.39
2017-10-03T09:16:11.432Z,13.39
2017-10-03T09:17:18.145Z,13.41
2017-10-03T09:18:25.110Z,13.41
2017-10-03T09:19:32.209Z,13.42
2017-10-03T09:20:38.895Z,13.42
2017-10-03T09:21:45.646Z,13.45
2017-10-03T09:22:52.534Z,13.45
2017-10-03T09:23:59.453Z,13.46
2017-10-03T09:25:06.268Z,13.47
2017-10-03T09:26:13.225Z,13.48
2017-10-03T09:27:20.060Z,13.50
2017-10-03T09:28:27.213Z,13.50
2017-10-03T09:29:33.981Z,13.51
2017-10-03T09:30:40.926Z,13.53
2017-10-03T09:31:47.702Z,13.54
2017-10-03T09:32:54.666Z,13.55
2017-10-03T09:34:01.458Z,13.55
2017-10-03T09:35:08.288Z,13.55
2017-10-03T09:36:15.166Z,13.57
2017-10-03T09:37:21.876Z,13.58
2017-10-03T09:38:28.657Z,13.59
2017-10-03T09:39:35.350Z,13.61
2017-10-03T09:40:42.402Z,13.61
2017-10-03T09:41:49.310Z,13.63
2017-10-03T09:42:56.114Z,13.64
2017-10-03T09:44:03.101Z,13.66
2017-10-03T09:45:09.818Z,13.67
2017-10-03T09:46:16.500Z,13.69
2017-10-03T09:47:23.623Z,13.69
2017-10-03T09:48:30.320Z,13.72
2017-10-03T09:49:37.233Z,13.72
2017-10-03T09:50:44.020Z,13.74
2017-10-03T09:51:50.983Z,13.76
2017-10-03T09:52:58.009Z,13.75
2017-10-03T09:54:04.921Z,13.78
2017-10-03T09:55:11.761Z,13.77
2017-10-03T09:56:18.645Z,13.80
2017-10-03T09:57:25.585Z,13.80
2017-10-03T09:58:32.515Z,13.80
2017-10-03T09:59:39.369Z,13.81
2017-10-03T10:00:46.431Z,13.83
2017-10-03T10:01:53.218Z,13.83
2017-10-03T10:03:00.122Z,13.85
2017-10-03T10:04:06.979Z,13.85
2017-10-03T10:05:14.207Z,13.87
2017-10-03T10:06:20.643Z,13.88
2017-10-03T10:07:27.532Z,13.89
2017-10-03T10:08:34.401Z,13.91
2017-10-03T10:09:41.137Z,13.91
2017-10-03T10:10:47.864Z,13.94
2017-10-03T10:11:54.613Z,13.94
2017-10-03T10:13:01.574Z,13.96
2017-10-03T10:14:08.270Z,13.98
2017-10-03T10:15:15.169Z,13.99
2017-10-03T10:16:21.998Z,14.01
2017-10-03T10:17:28.957Z,14.01
2017-10-03T10:18:35.948Z,14.03
2017-10-03T10:19:42.726Z,14.05
2017-10-03T10:20:49.781Z,14.06
2017-10-03T10:21:56.441Z,14.06
2017-10-03T10:23:03.194Z,14.10
2017-10-03T10:24:10.049Z,14.11
2017-10-03T10:25:17.750Z,14.12
2017-10-03T10:26:24.094Z,14.14
2017-10-03T10:27:31.074Z,14.15
2017-10-03T10:28:37.930Z,14.17
2017-10-03T10:29:44.917Z,14.18
2017-10-03T10:30:51.697Z,14.21
2017-10-03T10:31:58.570Z,14.20
2017-10-03T10:33:05.422Z,14.22
2017-10-03T10:34:12.389Z,14.25
2017-10-03T10:35:19.242Z,14.25
2017-10-03T10:36:26.037Z,14.24
2017-10-03T10:37:32.992Z,14.28
2017-10-03T10:38:39.984Z,14.28
2017-10-03T10:39:46.914Z,14.31
2017-10-03T10:40:53.809Z,14.31
2017-10-03T10:42:00.506Z,14.33
2017-10-03T10:43:07.425Z,14.34
2017-10-03T10:44:14.262Z,14.35
2017-10-03T10:45:21.069Z,14.38
2017-10-03T10:46:28.077Z,14.37
2017-10-03T10:47:34.865Z,14.38
2017-10-03T10:48:41.652Z,14.38
2017-10-03T10:49:48.362Z,14.40
2017-10-03T10:50:55.154Z,14.41
2017-10-03T10:52:01.969Z,14.45
2017-10-03T10:53:03.765Z,14.45
2017-10-03T10:54:10.612Z,14.46
2017-10-03T10:55:17.469Z,14.48
2017-10-03T10:56:24.330Z,14.49
2017-10-03T10:57:31.191Z,14.49
2017-10-03T10:58:37.930Z,14.50
2017-10-03T10:59:44.686Z,14.52
2017-10-03T11:00:51.482Z,14.54
2017-10-03T11:01:58.303Z,14.54
2017-10-03T11:03:05.092Z,14.56
2017-10-03T11:04:11.986Z,14.58
2017-10-03T11:05:19.306Z,14.59
2017-10-03T11:06:25.580Z,14.60
2017-10-03T11:07:32.374Z,14.59
2017-10-03T11:08:39.130Z,14.60
2017-10-03T11:09:45.857Z,14.63
2017-10-03T11:10:52.677Z,14.62
2017-10-03T11:11:59.461Z,14.66
2017-10-03T11:13:06.306Z,14.67
2017-10-03T11:14:13.044Z,14.67
2017-10-03T11:15:19.813Z,14.69
2017-10-03T11:16:26.647Z,14.70
2017-10-03T11:17:33.431Z,14.72
2017-10-03T11:18:40.237Z,14.72
2017-10-03T11:19:46.953Z,14.72
2017-10-03T11:20:53.739Z,14.74
2017-10-03T11:22:00.543Z,14.76
2017-10-03T11:23:07.411Z,14.76
2017-10-03T11:24:14.379Z,14.79
2017-10-03T11:25:21.142Z,14.79
2017-10-03T11:26:27.934Z,14.80
2017-10-03T11:27:34.852Z,14.80
2017-10-03T11:28:41.661Z,14.82
2017-10-03T11:29:48.443Z,14.86
2017-10-03T11:30:55.222Z,14.86
2017-10-03T11:32:02.042Z,14.86
2017-10-03T11:33:09.118Z,14.87
2017-10-03T11:34:15.869Z,14.88
2017-10-03T11:35:22.681Z,14.90
2017-10-03T11:36:29.445Z,14.90
2017-10-03T11:37:36.223Z,14.91
2017-10-03T11:38:43.063Z,14.93
2017-10-03T11:39:49.983Z,14.94
2017-10-03T11:40:56.784Z,14.96
2017-10-03T11:42:03.539Z,14.95
2017-10-03T11:43:10.335Z,14.97
2017-10-03T11:44:17.199Z,14.98
2017-10-03T11:45:23.957Z,14.99
2017-10-03T11:46:30.710Z,15.01
2017-10-03T11:47:37.493Z,15.02
2017-10-03T11:48:44.339Z,15.04
2017-10-03T11:49:51.118Z,15.04
2017-10-03T11:50:57.936Z,15.06
2017-10-03T11:52:04.705Z,15.07
2017-10-03T11:53:11.465Z,15.09
2017-10-03T11:54:18.230Z,15.08
2017-10-03T11:55:24.988Z,15.10
2017-10-03T11:56:31.759Z,15.10
2017-10-03T11:57:38.593Z,15.12
2017-10-03T11:58:45.369Z,15.13
2017-10-03T11:59:52.172Z,15.14
2017-10-03T12:00:58.966Z,15.16
2017-10-03T12:02:05.745Z,15.16
2017-10-03T12:03:12.790Z,15.16
2017-10-03T12:04:19.578Z,15.18
2017-10-03T12:05:26.379Z,15.18
2017-10-03T12:06:33.213Z,15.20
2017-10-03T12:07:39.969Z,15.21
2017-10-03T12:08:46.741Z,15.22
2017-10-03T12:09:53.626Z,15.23
2017-10-03T12:11:00.454Z,15.25
2017-10-03T12:12:07.606Z,15.26
2017-10-03T12:13:13.897Z,15.27
2017-10-03T12:14:20.689Z,15.28
2017-10-03T12:15:27.531Z,15.27
2017-10-03T12:16:34.254Z,15.31
2017-10-03T12:17:41.097Z,15.32
2017-10-03T12:18:47.955Z,15.32
2017-10-03T12:19:54.754Z,15.33
2017-10-03T12:21:01.589Z,15.36
2017-10-03T12:22:08.354Z,15.35
2017-10-03T12:23:15.116Z,15.37
2017-10-03T12:24:21.941Z,15.38
2017-10-03T12:25:28.748Z,15.39
2017-10-03T12:26:35.565Z,15.40
2017-10-03T12:27:42.510Z,15.40
2017-10-03T12:28:49.278Z,15.43
2017-10-03T12:29:56.050Z,15.43
2017-10-03T12:31:02.787Z,15.44
2017-10-03T12:32:09.617Z,15.45
2017-10-03T12:33:16.430Z,15.46
2017-10-03T12:34:23.175Z,15.48
2017-10-03T12:35:30.505Z,15.48
2017-10-03T12:36:36.837Z,15.50
2017-10-03T12:37:43.677Z,15.49
2017-10-03T12:38:50.407Z,15.51
2017-10-03T12:39:57.226Z,15.53
2017-10-03T12:41:03.996Z,15.54
2017-10-03T12:42:11.200Z,15.54
2017-10-03T12:43:17.989Z,15.55
2017-10-03T12:44:24.883Z,15.56
2017-10-03T12:45:31.671Z,15.55
2017-10-03T12:46:38.466Z,15.57
2017-10-03T12:47:45.281Z,15.57
2017-10-03T12:48:52.050Z,15.58
2017-10-03T12:49:58.832Z,15.59
2017-10-03T12:51:05.569Z,15.59
2017-10-03T12:52:12.336Z,15.60
2017-10-03T12:53:19.116Z,15.61
2017-10-03T12:54:25.866Z,15.61
2017-10-03T12:55:32.698Z,15.62
2017-10-03T12:56:39.458Z,15.62
2017-10-03T12:57:46.199Z,15.63
2017-10-03T12:58:53.035Z,15.65
2017-10-03T12:59:59.894Z,15.65
2017-10-03T13:01:06.701Z,15.66
2017-10-03T13:02:13.554Z,15.66
2017-10-03T13:03:20.299Z,15.66
2017-10-03T13:04:27.305Z,15.69
2017-10-03T13:05:34.512Z,15.69
2017-10-03T13:06:41.295Z,15.68
2017-10-03T13:07:48.029Z,15.70
2017-10-03T13:08:54.838Z,15.70
2017-10-03T13:10:01.564Z,15.72
2017-10-03T13:11:08.363Z,15.72
2017-10-03T13:12:15.097Z,15.70
2017-10-03T13:13:21.878Z,15.72
2017-10-03T13:14:28.648Z,15.72
2017-10-03T13:15:35.446Z,15.72
2017-10-03T13:16:42.257Z,15.72
2017-10-03T13:17:49.097Z,15.73
2017-10-03T13:18:55.901Z,15.73
2017-10-03T13:20:02.626Z,15.73
2017-10-03T13:21:09.465Z,15.74
2017-10-03T13:22:16.245Z,15.74
2017-10-03T13:23:23.049Z,15.73
2017-10-03T13:24:29.828Z,15.76
2017-10-03T13:25:36.662Z,15.74
2017-10-03T13:26:43.570Z,15.75
2017-10-03T13:27:50.426Z,15.75
2017-10-03T13:28:57.213Z,15.76
2017-10-03T13:30:03.994Z,15.78
2017-10-03T13:31:10.841Z,15.77
2017-10-03T13:32:17.645Z,15.79
2017-10-03T13:33:24.441Z,15.79
2017-10-03T13:34:31.475Z,15.79
2017-10-03T13:35:38.240Z,15.79
2017-10-03T13:36:45.028Z,15.81
2017-10-03T13:37:51.849Z,15.82
2017-10-03T13:38:58.691Z,15.81
2017-10-03T13:40:05.456Z,15.81
2017-10-03T13:41:12.246Z,15.82
2017-10-03T13:42:19.045Z,15.83
2017-10-03T13:43:26.165Z,15.83
2017-10-03T13:44:32.498Z,15.84
2017-10-03T13:45:39.338Z,15.85
2017-10-03T13:46:46.186Z,15.84
2017-10-03T13:47:52.980Z,15.84
2017-10-03T13:48:59.762Z,15.84
2017-10-03T13:50:06.545Z,15.86
2017-10-03T13:51:13.292Z,15.86
2017-10-03T13:52:20.166Z,15.86
2017-10-03T13:53:26.996Z,15.88
2017-10-03T13:54:33.799Z,15.88
2017-10-03T13:55:40.570Z,15.88
2017-10-03T13:56:47.362Z,15.88
2017-10-03T13:57:54.241Z,15.89
2017-10-03T13:59:00.998Z,15.91
2017-10-03T14:00:07.847Z,15.90
2017-10-03T14:01:14.636Z,15.91
2017-10-03T14:02:21.593Z,15.90
2017-10-03T14:03:28.355Z,15.91
2017-10-03T14:04:35.120Z,15.92
2017-10-03T14:05:43.017Z,15.92
2017-10-03T14:06:48.762Z,15.92
2017-10-03T14:07:55.626Z,15.93
2017-10-03T14:09:02.385Z,15.94
2017-10-03T14:10:09.325Z,15.93
2017-10-03T14:11:16.061Z,15.94
2017-10-03T14:12:22.853Z,15.93
2017-10-03T14:13:29.581Z,15.93
2017-10-03T14:14:36.313Z,15.94
2017-10-03T14:15:43.045Z,15.95
2017-10-03T14:16:49.821Z,15.95
2017-10-03T14:17:56.746Z,15.95
2017-10-03T14:19:03.559Z,15.95
2017-10-03T14:20:10.378Z,15.95